sensor_id;sensor_type;location;lat;lon;timestamp;temperature;humidity
64918;HTU21D;52176;44.858;38.372;2022-10-17T00:00:53;13.35;79.24
64918;HTU21D;52176;44.858;38.372;2022-10-17T00:03:19;13.34;79.27
64918;HTU21D;52176;44.858;38.372;2022-10-17T00:05:45;13.31;79.29
64918;HTU21D;52176;44.858;38.372;2022-10-17T00:08:12;13.31;79.30
64918;HTU21D;52176;44.858;38.372;2022-10-17T00:10:38;13.30;79.32
64918;HTU21D;52176;44.858;38.372;2022-10-17T00:13:05;13.26;79.33
64918;HTU21D;52176;44.858;38.372;2022-10-17T00:15:31;13.25;79.34
64918;HTU21D;52176;44.858;38.372;2022-10-17T00:17:57;13.22;79.33
64918;HTU21D;52176;44.858;38.372;2022-10-17T00:20:23;13.20;79.37
64918;HTU21D;52176;44.858;38.372;2022-10-17T00:22:49;13.17;79.26
64918;HTU21D;52176;44.858;38.372;2022-10-17T00:25:15;13.14;79.21
64918;HTU21D;52176;44.858;38.372;2022-10-17T00:27:41;13.11;79.16
64918;HTU21D;52176;44.858;38.372;2022-10-17T00:30:09;13.08;79.08
64918;HTU21D;52176;44.858;38.372;2022-10-17T00:32:35;13.07;79.01
64918;HTU21D;52176;44.858;38.372;2022-10-17T00:35:01;13.03;78.95
64918;HTU21D;52176;44.858;38.372;2022-10-17T00:37:27;13.03;78.88
64918;HTU21D;52176;44.858;38.372;2022-10-17T00:39:54;13.00;78.81
64918;HTU21D;52176;44.858;38.372;2022-10-17T00:42:20;12.97;78.75
64918;HTU21D;52176;44.858;38.372;2022-10-17T00:47:13;12.92;78.64
64918;HTU21D;52176;44.858;38.372;2022-10-17T00:49:39;12.89;78.59
64918;HTU21D;52176;44.858;38.372;2022-10-17T00:52:10;12.85;78.56
64918;HTU21D;52176;44.858;38.372;2022-10-17T00:54:39;12.81;78.51
64918;HTU21D;52176;44.858;38.372;2022-10-17T00:57:05;12.77;78.53
64918;HTU21D;52176;44.858;38.372;2022-10-17T00:59:35;12.74;78.53
64918;HTU21D;52176;44.858;38.372;2022-10-17T01:02:04;12.70;78.56
64918;HTU21D;52176;44.858;38.372;2022-10-17T01:04:30;12.66;78.55
64918;HTU21D;52176;44.858;38.372;2022-10-17T01:06:56;12.63;78.59
64918;HTU21D;52176;44.858;38.372;2022-10-17T01:09:22;12.60;78.63
64918;HTU21D;52176;44.858;38.372;2022-10-17T01:19:56;12.50;78.63
64918;HTU21D;52176;44.858;38.372;2022-10-17T01:22:26;12.51;78.63
64918;HTU21D;52176;44.858;38.372;2022-10-17T01:25:03;12.47;78.66
64918;HTU21D;52176;44.858;38.372;2022-10-17T01:32:56;12.40;78.67
64918;HTU21D;52176;44.858;38.372;2022-10-17T01:35:32;12.36;78.65
64918;HTU21D;52176;44.858;38.372;2022-10-17T01:40:32;12.33;78.71
64918;HTU21D;52176;44.858;38.372;2022-10-17T01:48:01;12.28;78.86
64918;HTU21D;52176;44.858;38.372;2022-10-17T01:50:32;12.26;78.98
64918;HTU21D;52176;44.858;38.372;2022-10-17T01:53:01;12.22;79.08
64918;HTU21D;52176;44.858;38.372;2022-10-17T01:55:32;12.18;79.21
64918;HTU21D;52176;44.858;38.372;2022-10-17T01:58:00;12.17;79.36
64918;HTU21D;52176;44.858;38.372;2022-10-17T02:00:28;12.13;79.49
64918;HTU21D;52176;44.858;38.372;2022-10-17T02:02:57;12.12;79.59
64918;HTU21D;52176;44.858;38.372;2022-10-17T02:05:25;12.11;79.69
64918;HTU21D;52176;44.858;38.372;2022-10-17T02:07:52;12.08;79.78
64918;HTU21D;52176;44.858;38.372;2022-10-17T02:10:29;12.06;79.89
64918;HTU21D;52176;44.858;38.372;2022-10-17T02:17:59;12.00;80.20
64918;HTU21D;52176;44.858;38.372;2022-10-17T02:20:30;11.97;80.30
64918;HTU21D;52176;44.858;38.372;2022-10-17T02:25:38;11.94;80.44
64918;HTU21D;52176;44.858;38.372;2022-10-17T02:30:59;11.92;80.62
64918;HTU21D;52176;44.858;38.372;2022-10-17T02:36:21;11.92;80.71
64918;HTU21D;52176;44.858;38.372;2022-10-17T02:38:49;11.92;80.87
64918;HTU21D;52176;44.858;38.372;2022-10-17T02:41:16;11.96;80.92
64918;HTU21D;52176;44.858;38.372;2022-10-17T02:43:44;11.97;80.95
64918;HTU21D;52176;44.858;38.372;2022-10-17T02:46:12;11.97;81.04
64918;HTU21D;52176;44.858;38.372;2022-10-17T02:48:47;11.99;81.11
64918;HTU21D;52176;44.858;38.372;2022-10-17T02:56:16;11.92;81.38
64918;HTU21D;52176;44.858;38.372;2022-10-17T02:58:44;11.92;81.42
64918;HTU21D;52176;44.858;38.372;2022-10-17T03:01:12;11.91;81.48
64918;HTU21D;52176;44.858;38.372;2022-10-17T03:03:38;11.92;81.57
64918;HTU21D;52176;44.858;38.372;2022-10-17T03:06:04;11.93;81.67
64918;HTU21D;52176;44.858;38.372;2022-10-17T03:08:30;11.93;81.70
64918;HTU21D;52176;44.858;38.372;2022-10-17T03:10:55;11.96;81.81
64918;HTU21D;52176;44.858;38.372;2022-10-17T03:13:22;11.94;81.88
64918;HTU21D;52176;44.858;38.372;2022-10-17T03:15:48;11.97;82.03
64918;HTU21D;52176;44.858;38.372;2022-10-17T03:18:14;11.97;82.06
64918;HTU21D;52176;44.858;38.372;2022-10-17T03:20:40;11.97;82.07
64918;HTU21D;52176;44.858;38.372;2022-10-17T03:23:07;11.93;82.13
64918;HTU21D;52176;44.858;38.372;2022-10-17T03:25:33;11.92;82.22
64918;HTU21D;52176;44.858;38.372;2022-10-17T03:27:59;11.88;82.27
64918;HTU21D;52176;44.858;38.372;2022-10-17T03:30:26;11.87;82.34
64918;HTU21D;52176;44.858;38.372;2022-10-17T03:32:52;11.86;82.39
64918;HTU21D;52176;44.858;38.372;2022-10-17T03:35:18;11.84;82.49
64918;HTU21D;52176;44.858;38.372;2022-10-17T03:37:47;11.85;82.54
64918;HTU21D;52176;44.858;38.372;2022-10-17T03:40:14;11.86;82.66
64918;HTU21D;52176;44.858;38.372;2022-10-17T03:42:40;11.87;82.73
64918;HTU21D;52176;44.858;38.372;2022-10-17T03:45:06;11.87;82.82
64918;HTU21D;52176;44.858;38.372;2022-10-17T03:47:32;11.86;82.94
64918;HTU21D;52176;44.858;38.372;2022-10-17T03:49:58;11.87;83.02
64918;HTU21D;52176;44.858;38.372;2022-10-17T03:52:24;11.87;83.11
64918;HTU21D;52176;44.858;38.372;2022-10-17T03:54:50;11.86;83.21
64918;HTU21D;52176;44.858;38.372;2022-10-17T03:57:18;11.84;83.31
64918;HTU21D;52176;44.858;38.372;2022-10-17T03:59:44;11.84;83.38
64918;HTU21D;52176;44.858;38.372;2022-10-17T04:02:15;11.81;83.48
64918;HTU21D;52176;44.858;38.372;2022-10-17T04:04:42;11.82;83.56
64918;HTU21D;52176;44.858;38.372;2022-10-17T04:07:07;11.79;83.58
64918;HTU21D;52176;44.858;38.372;2022-10-17T04:09:37;11.78;83.68
64918;HTU21D;52176;44.858;38.372;2022-10-17T04:12:10;11.77;83.65
64918;HTU21D;52176;44.858;38.372;2022-10-17T04:14:36;11.79;83.71
64918;HTU21D;52176;44.858;38.372;2022-10-17T04:17:02;11.79;83.74
64918;HTU21D;52176;44.858;38.372;2022-10-17T04:19:29;11.79;83.77
64918;HTU21D;52176;44.858;38.372;2022-10-17T04:21:55;11.78;83.77
64918;HTU21D;52176;44.858;38.372;2022-10-17T04:24:21;11.77;83.78
64918;HTU21D;52176;44.858;38.372;2022-10-17T04:26:57;11.75;83.82
64918;HTU21D;52176;44.858;38.372;2022-10-17T04:29:26;11.75;83.90
64918;HTU21D;52176;44.858;38.372;2022-10-17T04:32:00;11.73;83.93
64918;HTU21D;52176;44.858;38.372;2022-10-17T04:34:33;11.73;83.96
64918;HTU21D;52176;44.858;38.372;2022-10-17T04:36:58;11.71;84.16
64918;HTU21D;52176;44.858;38.372;2022-10-17T04:39:25;11.70;84.16
64918;HTU21D;52176;44.858;38.372;2022-10-17T04:41:51;11.69;84.35
64918;HTU21D;52176;44.858;38.372;2022-10-17T04:44:17;11.69;84.35
64918;HTU21D;52176;44.858;38.372;2022-10-17T04:46:49;11.68;84.44
64918;HTU21D;52176;44.858;38.372;2022-10-17T04:49:15;11.68;84.55
64918;HTU21D;52176;44.858;38.372;2022-10-17T04:51:43;11.68;84.48
64918;HTU21D;52176;44.858;38.372;2022-10-17T04:54:21;11.71;84.48
64918;HTU21D;52176;44.858;38.372;2022-10-17T04:56:53;11.69;84.48
64918;HTU21D;52176;44.858;38.372;2022-10-17T04:59:19;11.71;84.51
64918;HTU21D;52176;44.858;38.372;2022-10-17T05:01:50;11.73;84.52
64918;HTU21D;52176;44.858;38.372;2022-10-17T05:04:17;11.75;84.56
64918;HTU21D;52176;44.858;38.372;2022-10-17T05:06:43;11.77;84.55
64918;HTU21D;52176;44.858;38.372;2022-10-17T05:09:29;11.81;84.48
64918;HTU21D;52176;44.858;38.372;2022-10-17T05:11:55;11.82;84.48
64918;HTU21D;52176;44.858;38.372;2022-10-17T05:14:21;11.84;84.53
64918;HTU21D;52176;44.858;38.372;2022-10-17T05:16:47;11.85;84.53
64918;HTU21D;52176;44.858;38.372;2022-10-17T05:19:13;11.87;84.61
64918;HTU21D;52176;44.858;38.372;2022-10-17T05:21:43;11.92;84.66
64918;HTU21D;52176;44.858;38.372;2022-10-17T05:24:10;11.96;84.68
64918;HTU21D;52176;44.858;38.372;2022-10-17T05:26:37;11.98;84.71
64918;HTU21D;52176;44.858;38.372;2022-10-17T05:29:03;12.00;84.74
64918;HTU21D;52176;44.858;38.372;2022-10-17T05:31:33;12.02;84.79
64918;HTU21D;52176;44.858;38.372;2022-10-17T05:33:59;12.06;84.83
64918;HTU21D;52176;44.858;38.372;2022-10-17T05:36:26;12.08;84.88
64918;HTU21D;52176;44.858;38.372;2022-10-17T05:38:52;12.10;84.94
64918;HTU21D;52176;44.858;38.372;2022-10-17T05:41:20;12.12;84.97
64918;HTU21D;52176;44.858;38.372;2022-10-17T05:43:46;12.12;84.92
64918;HTU21D;52176;44.858;38.372;2022-10-17T05:46:16;12.10;84.95
64918;HTU21D;52176;44.858;38.372;2022-10-17T05:48:42;12.08;84.90
64918;HTU21D;52176;44.858;38.372;2022-10-17T05:51:08;12.06;84.92
64918;HTU21D;52176;44.858;38.372;2022-10-17T05:53:36;12.05;84.95
64918;HTU21D;52176;44.858;38.372;2022-10-17T05:56:06;12.07;84.89
64918;HTU21D;52176;44.858;38.372;2022-10-17T05:58:34;12.05;84.84
64918;HTU21D;52176;44.858;38.372;2022-10-17T06:01:05;12.05;84.82
64918;HTU21D;52176;44.858;38.372;2022-10-17T06:03:31;12.06;84.78
64918;HTU21D;52176;44.858;38.372;2022-10-17T06:06:04;12.08;84.81
64918;HTU21D;52176;44.858;38.372;2022-10-17T06:08:30;12.13;84.71
64918;HTU21D;52176;44.858;38.372;2022-10-17T06:10:56;12.16;84.61
64918;HTU21D;52176;44.858;38.372;2022-10-17T06:13:22;12.19;84.56
64918;HTU21D;52176;44.858;38.372;2022-10-17T06:15:50;12.19;84.46
64918;HTU21D;52176;44.858;38.372;2022-10-17T06:18:17;12.20;84.29
64918;HTU21D;52176;44.858;38.372;2022-10-17T06:20:42;12.17;84.27
64918;HTU21D;52176;44.858;38.372;2022-10-17T06:23:08;12.16;84.26
64918;HTU21D;52176;44.858;38.372;2022-10-17T06:26:00;12.15;84.11
64918;HTU21D;52176;44.858;38.372;2022-10-17T06:28:28;12.11;84.10
64918;HTU21D;52176;44.858;38.372;2022-10-17T06:30:55;12.11;84.12
64918;HTU21D;52176;44.858;38.372;2022-10-17T06:33:21;12.11;84.04
64918;HTU21D;52176;44.858;38.372;2022-10-17T06:35:52;12.11;84.01
64918;HTU21D;52176;44.858;38.372;2022-10-17T06:38:19;12.11;83.89
64918;HTU21D;52176;44.858;38.372;2022-10-17T06:40:45;12.10;83.85
64918;HTU21D;52176;44.858;38.372;2022-10-17T06:43:11;12.07;83.83
64918;HTU21D;52176;44.858;38.372;2022-10-17T06:45:56;12.05;83.75
64918;HTU21D;52176;44.858;38.372;2022-10-17T06:48:31;12.06;83.70
64918;HTU21D;52176;44.858;38.372;2022-10-17T06:51:15;12.06;83.66
64918;HTU21D;52176;44.858;38.372;2022-10-17T06:53:51;12.07;83.59
64918;HTU21D;52176;44.858;38.372;2022-10-17T06:56:46;12.06;83.52
64918;HTU21D;52176;44.858;38.372;2022-10-17T06:59:30;12.04;83.49
64918;HTU21D;52176;44.858;38.372;2022-10-17T07:02:18;12.04;83.49
64918;HTU21D;52176;44.858;38.372;2022-10-17T07:04:45;12.07;83.52
64918;HTU21D;52176;44.858;38.372;2022-10-17T07:07:11;12.06;83.55
64918;HTU21D;52176;44.858;38.372;2022-10-17T07:09:38;12.12;83.55
64918;HTU21D;52176;44.858;38.372;2022-10-17T07:12:04;12.20;83.58
64918;HTU21D;52176;44.858;38.372;2022-10-17T07:14:33;12.29;83.49
64918;HTU21D;52176;44.858;38.372;2022-10-17T07:16:59;12.37;83.39
64918;HTU21D;52176;44.858;38.372;2022-10-17T07:19:27;12.44;83.26
64918;HTU21D;52176;44.858;38.372;2022-10-17T07:21:54;12.45;83.22
64918;HTU21D;52176;44.858;38.372;2022-10-17T07:24:20;12.43;83.18
64918;HTU21D;52176;44.858;38.372;2022-10-17T07:26:52;12.43;83.21
64918;HTU21D;52176;44.858;38.372;2022-10-17T07:29:18;12.47;83.20
64918;HTU21D;52176;44.858;38.372;2022-10-17T07:32:05;12.52;83.12
64918;HTU21D;52176;44.858;38.372;2022-10-17T07:34:34;12.58;82.98
64918;HTU21D;52176;44.858;38.372;2022-10-17T07:37:00;12.62;82.87
64918;HTU21D;52176;44.858;38.372;2022-10-17T07:39:26;12.64;82.85
64918;HTU21D;52176;44.858;38.372;2022-10-17T07:41:52;12.67;82.75
64918;HTU21D;52176;44.858;38.372;2022-10-17T07:44:18;12.74;82.66
64918;HTU21D;52176;44.858;38.372;2022-10-17T07:46:48;12.81;82.55
64918;HTU21D;52176;44.858;38.372;2022-10-17T07:49:15;12.90;82.46
64918;HTU21D;52176;44.858;38.372;2022-10-17T07:51:41;13.01;82.32
64918;HTU21D;52176;44.858;38.372;2022-10-17T07:54:07;13.10;82.14
64918;HTU21D;52176;44.858;38.372;2022-10-17T07:56:32;13.18;81.95
64918;HTU21D;52176;44.858;38.372;2022-10-17T07:58:58;13.23;81.87
64918;HTU21D;52176;44.858;38.372;2022-10-17T08:01:24;13.29;81.74
64918;HTU21D;52176;44.858;38.372;2022-10-17T08:03:50;13.36;81.68
64918;HTU21D;52176;44.858;38.372;2022-10-17T08:06:16;13.43;81.60
64918;HTU21D;52176;44.858;38.372;2022-10-17T08:08:42;13.47;81.53
64918;HTU21D;52176;44.858;38.372;2022-10-17T08:11:09;13.48;81.49
64918;HTU21D;52176;44.858;38.372;2022-10-17T08:13:37;13.50;81.51
64918;HTU21D;52176;44.858;38.372;2022-10-17T08:16:05;13.54;81.50
64918;HTU21D;52176;44.858;38.372;2022-10-17T08:18:32;13.64;81.49
64918;HTU21D;52176;44.858;38.372;2022-10-17T08:20:58;13.74;81.39
64918;HTU21D;52176;44.858;38.372;2022-10-17T08:23:24;13.88;81.21
64918;HTU21D;52176;44.858;38.372;2022-10-17T08:25:50;14.01;81.06
64918;HTU21D;52176;44.858;38.372;2022-10-17T08:28:16;14.15;80.77
64918;HTU21D;52176;44.858;38.372;2022-10-17T08:30:42;14.30;80.56
64918;HTU21D;52176;44.858;38.372;2022-10-17T08:33:07;14.38;80.32
64918;HTU21D;52176;44.858;38.372;2022-10-17T08:35:33;14.45;80.25
64918;HTU21D;52176;44.858;38.372;2022-10-17T08:37:59;14.51;80.21
64918;HTU21D;52176;44.858;38.372;2022-10-17T08:40:29;14.52;80.24
64918;HTU21D;52176;44.858;38.372;2022-10-17T08:43:08;14.51;80.30
64918;HTU21D;52176;44.858;38.372;2022-10-17T08:45:52;14.52;80.38
64918;HTU21D;52176;44.858;38.372;2022-10-17T08:48:20;14.50;80.44
64918;HTU21D;52176;44.858;38.372;2022-10-17T08:50:57;14.43;80.56
64918;HTU21D;52176;44.858;38.372;2022-10-17T08:56:19;14.32;80.84
64918;HTU21D;52176;44.858;38.372;2022-10-17T08:58:45;14.25;81.01
64918;HTU21D;52176;44.858;38.372;2022-10-17T09:01:24;14.21;81.30
64918;HTU21D;52176;44.858;38.372;2022-10-17T09:04:08;0.00;81.48
64918;HTU21D;52176;44.858;38.372;2022-10-17T09:14:42;14.11;82.04
64918;HTU21D;52176;44.858;38.372;2022-10-17T09:17:16;14.19;82.03
64918;HTU21D;52176;44.858;38.372;2022-10-17T09:19:56;14.25;81.94
64918;HTU21D;52176;44.858;38.372;2022-10-17T09:22:24;14.32;81.84
64918;HTU21D;52176;44.858;38.372;2022-10-17T09:24:57;14.35;81.80
64918;HTU21D;52176;44.858;38.372;2022-10-17T09:27:24;14.37;81.75
64918;HTU21D;52176;44.858;38.372;2022-10-17T09:29:54;14.41;81.72
64918;HTU21D;52176;44.858;38.372;2022-10-17T09:32:24;14.48;81.68
64918;HTU21D;52176;44.858;38.372;2022-10-17T09:34:51;14.53;81.61
64918;HTU21D;52176;44.858;38.372;2022-10-17T09:37:17;14.56;81.71
64918;HTU21D;52176;44.858;38.372;2022-10-17T09:39:43;14.56;81.74
64918;HTU21D;52176;44.858;38.372;2022-10-17T09:42:11;14.54;81.82
64918;HTU21D;52176;44.858;38.372;2022-10-17T09:45:23;14.51;81.88
64918;HTU21D;52176;44.858;38.372;2022-10-17T09:49:50;14.52;81.95
64918;HTU21D;52176;44.858;38.372;2022-10-17T09:52:35;14.52;82.01
64918;HTU21D;52176;44.858;38.372;2022-10-17T09:55:05;14.56;82.02
64918;HTU21D;52176;44.858;38.372;2022-10-17T09:57:50;14.58;82.11
64918;HTU21D;52176;44.858;38.372;2022-10-17T10:00:20;14.59;82.01
64918;HTU21D;52176;44.858;38.372;2022-10-17T10:02:47;14.59;82.12
64918;HTU21D;52176;44.858;38.372;2022-10-17T10:05:16;14.58;82.28
64918;HTU21D;52176;44.858;38.372;2022-10-17T10:07:42;14.57;82.16
64918;HTU21D;52176;44.858;38.372;2022-10-17T10:10:28;14.58;82.13
64918;HTU21D;52176;44.858;38.372;2022-10-17T10:13:05;14.59;82.09
64918;HTU21D;52176;44.858;38.372;2022-10-17T10:15:33;14.60;82.09
64918;HTU21D;52176;44.858;38.372;2022-10-17T10:17:59;14.62;82.13
64918;HTU21D;52176;44.858;38.372;2022-10-17T10:20:33;14.63;82.11
64918;HTU21D;52176;44.858;38.372;2022-10-17T10:23:16;14.64;82.12
64918;HTU21D;52176;44.858;38.372;2022-10-17T10:25:51;14.65;82.19
64918;HTU21D;52176;44.858;38.372;2022-10-17T10:28:17;14.62;82.26
64918;HTU21D;52176;44.858;38.372;2022-10-17T10:30:45;14.56;82.30
64918;HTU21D;52176;44.858;38.372;2022-10-17T10:33:12;14.54;82.39
64918;HTU21D;52176;44.858;38.372;2022-10-17T10:35:38;14.51;82.49
64918;HTU21D;52176;44.858;38.372;2022-10-17T10:38:08;14.49;82.58
64918;HTU21D;52176;44.858;38.372;2022-10-17T10:40:35;14.44;82.64
64918;HTU21D;52176;44.858;38.372;2022-10-17T10:43:03;14.45;82.65
64918;HTU21D;52176;44.858;38.372;2022-10-17T10:48:01;14.41;82.81
64918;HTU21D;52176;44.858;38.372;2022-10-17T10:50:44;14.40;82.85
64918;HTU21D;52176;44.858;38.372;2022-10-17T10:55:43;14.40;82.83
64918;HTU21D;52176;44.858;38.372;2022-10-17T10:58:59;14.37;82.86
64918;HTU21D;52176;44.858;38.372;2022-10-17T11:00:58;14.37;82.77
64918;HTU21D;52176;44.858;38.372;2022-10-17T11:03:27;14.37;82.78
64918;HTU21D;52176;44.858;38.372;2022-10-17T11:05:55;14.35;82.71
64918;HTU21D;52176;44.858;38.372;2022-10-17T11:08:37;14.34;82.68
64918;HTU21D;52176;44.858;38.372;2022-10-17T11:11:06;14.34;82.57
64918;HTU21D;52176;44.858;38.372;2022-10-17T11:13:52;14.35;82.54
64918;HTU21D;52176;44.858;38.372;2022-10-17T11:16:30;14.37;82.44
64918;HTU21D;52176;44.858;38.372;2022-10-17T11:19:07;14.36;82.53
64918;HTU21D;52176;44.858;38.372;2022-10-17T11:21:48;14.37;82.45
64918;HTU21D;52176;44.858;38.372;2022-10-17T11:24:20;14.36;82.41
64918;HTU21D;52176;44.858;38.372;2022-10-17T11:26:49;14.35;82.46
64918;HTU21D;52176;44.858;38.372;2022-10-17T11:29:18;14.34;82.42
64918;HTU21D;52176;44.858;38.372;2022-10-17T11:31:46;14.36;82.45
64918;HTU21D;52176;44.858;38.372;2022-10-17T11:36:46;14.33;82.29
64918;HTU21D;52176;44.858;38.372;2022-10-17T11:39:21;14.37;82.29
64918;HTU21D;52176;44.858;38.372;2022-10-17T11:41:49;14.39;82.24
64918;HTU21D;52176;44.858;38.372;2022-10-17T11:46:53;14.45;82.13
64918;HTU21D;52176;44.858;38.372;2022-10-17T11:49:23;14.47;82.04
64918;HTU21D;52176;44.858;38.372;2022-10-17T11:51:51;14.43;82.04
64918;HTU21D;52176;44.858;38.372;2022-10-17T12:02:00;14.43;81.94
64918;HTU21D;52176;44.858;38.372;2022-10-17T12:08:04;14.44;81.98
64918;HTU21D;52176;44.858;38.372;2022-10-17T12:10:00;14.42;81.97
64918;HTU21D;52176;44.858;38.372;2022-10-17T12:12:29;14.42;81.92
64918;HTU21D;52176;44.858;38.372;2022-10-17T12:17:54;14.44;81.85
64918;HTU21D;52176;44.858;38.372;2022-10-17T12:22:50;14.41;81.83
64918;HTU21D;52176;44.858;38.372;2022-10-17T12:25:17;14.40;81.84
64918;HTU21D;52176;44.858;38.372;2022-10-17T12:27:44;14.39;81.82
64918;HTU21D;52176;44.858;38.372;2022-10-17T12:32:51;14.39;81.74
64918;HTU21D;52176;44.858;38.372;2022-10-17T12:35:19;14.39;81.72
64918;HTU21D;52176;44.858;38.372;2022-10-17T12:42:57;14.39;81.76
64918;HTU21D;52176;44.858;38.372;2022-10-17T12:48:08;14.41;81.78
64918;HTU21D;52176;44.858;38.372;2022-10-17T12:53:39;14.42;81.75
64918;HTU21D;52176;44.858;38.372;2022-10-17T12:56:06;14.39;81.83
64918;HTU21D;52176;44.858;38.372;2022-10-17T12:58:33;14.37;81.83
64918;HTU21D;52176;44.858;38.372;2022-10-17T13:00:59;14.37;81.86
64918;HTU21D;52176;44.858;38.372;2022-10-17T13:03:25;14.36;81.87
64918;HTU21D;52176;44.858;38.372;2022-10-17T13:05:53;14.35;81.96
64918;HTU21D;52176;44.858;38.372;2022-10-17T13:08:21;14.33;82.10
64918;HTU21D;52176;44.858;38.372;2022-10-17T13:10:47;14.33;82.10
64918;HTU21D;52176;44.858;38.372;2022-10-17T13:15:54;14.28;82.23
64918;HTU21D;52176;44.858;38.372;2022-10-17T13:18:22;14.27;82.25
64918;HTU21D;52176;44.858;38.372;2022-10-17T13:20:58;14.26;82.31
64918;HTU21D;52176;44.858;38.372;2022-10-17T13:23:25;14.26;82.26
64918;HTU21D;52176;44.858;38.372;2022-10-17T13:28:28;14.24;82.33
64918;HTU21D;52176;44.858;38.372;2022-10-17T13:30:54;14.22;82.39
64918;HTU21D;52176;44.858;38.372;2022-10-17T13:33:33;14.21;82.39
64918;HTU21D;52176;44.858;38.372;2022-10-17T13:36:00;14.22;82.46
64918;HTU21D;52176;44.858;38.372;2022-10-17T13:38:28;14.22;82.43
64918;HTU21D;52176;44.858;38.372;2022-10-17T13:40:56;14.21;82.49
64918;HTU21D;52176;44.858;38.372;2022-10-17T13:43:23;14.20;82.52
64918;HTU21D;52176;44.858;38.372;2022-10-17T13:45:50;14.20;82.50
64918;HTU21D;52176;44.858;38.372;2022-10-17T13:48:26;14.22;82.42
64918;HTU21D;52176;44.858;38.372;2022-10-17T13:50:53;14.23;82.43
64918;HTU21D;52176;44.858;38.372;2022-10-17T13:55:52;14.21;82.42
64918;HTU21D;52176;44.858;38.372;2022-10-17T13:58:20;14.19;82.49
64918;HTU21D;52176;44.858;38.372;2022-10-17T14:00:46;14.18;82.41
64918;HTU21D;52176;44.858;38.372;2022-10-17T14:03:14;14.17;82.41
64918;HTU21D;52176;44.858;38.372;2022-10-17T14:08:24;14.13;82.46
64918;HTU21D;52176;44.858;38.372;2022-10-17T14:10:50;14.11;82.55
64918;HTU21D;52176;44.858;38.372;2022-10-17T14:13:20;14.10;82.59
64918;HTU21D;52176;44.858;38.372;2022-10-17T14:15:47;14.08;82.56
64918;HTU21D;52176;44.858;38.372;2022-10-17T14:18:15;14.08;82.55
64918;HTU21D;52176;44.858;38.372;2022-10-17T14:20:45;14.07;82.56
64918;HTU21D;52176;44.858;38.372;2022-10-17T14:26:06;14.04;82.59
64918;HTU21D;52176;44.858;38.372;2022-10-17T14:28:32;14.03;82.59
64918;HTU21D;52176;44.858;38.372;2022-10-17T14:33:57;13.99;82.63
64918;HTU21D;52176;44.858;38.372;2022-10-17T14:36:56;13.98;82.65
64918;HTU21D;52176;44.858;38.372;2022-10-17T14:39:19;13.96;82.65
64918;HTU21D;52176;44.858;38.372;2022-10-17T14:41:46;13.97;82.71
64918;HTU21D;52176;44.858;38.372;2022-10-17T14:44:23;13.94;82.76
64918;HTU21D;52176;44.858;38.372;2022-10-17T14:46:51;13.93;82.78
64918;HTU21D;52176;44.858;38.372;2022-10-17T14:49:26;13.91;82.86
64918;HTU21D;52176;44.858;38.372;2022-10-17T14:54:54;13.90;82.91
64918;HTU21D;52176;44.858;38.372;2022-10-17T14:59:58;13.86;82.97
64918;HTU21D;52176;44.858;38.372;2022-10-17T15:02:25;13.84;83.03
64918;HTU21D;52176;44.858;38.372;2022-10-17T15:04:52;13.83;83.11
64918;HTU21D;52176;44.858;38.372;2022-10-17T15:07:18;13.83;83.17
64918;HTU21D;52176;44.858;38.372;2022-10-17T15:09:46;13.81;83.21
64918;HTU21D;52176;44.858;38.372;2022-10-17T15:12:16;13.81;83.23
64918;HTU21D;52176;44.858;38.372;2022-10-17T15:14:42;13.80;83.25
64918;HTU21D;52176;44.858;38.372;2022-10-17T15:17:12;13.79;83.29
64918;HTU21D;52176;44.858;38.372;2022-10-17T15:19:39;13.78;83.35
64918;HTU21D;52176;44.858;38.372;2022-10-17T15:22:05;13.77;83.33
64918;HTU21D;52176;44.858;38.372;2022-10-17T15:24:32;13.77;83.37
64918;HTU21D;52176;44.858;38.372;2022-10-17T15:27:00;13.77;83.41
64918;HTU21D;52176;44.858;38.372;2022-10-17T15:29:26;13.76;83.50
64918;HTU21D;52176;44.858;38.372;2022-10-17T15:31:52;13.76;83.47
64918;HTU21D;52176;44.858;38.372;2022-10-17T15:34:18;13.74;83.49
64918;HTU21D;52176;44.858;38.372;2022-10-17T15:36:48;13.73;83.53
64918;HTU21D;52176;44.858;38.372;2022-10-17T15:39:15;13.71;83.55
64918;HTU21D;52176;44.858;38.372;2022-10-17T15:41:41;13.71;83.61
64918;HTU21D;52176;44.858;38.372;2022-10-17T15:44:14;13.70;83.58
64918;HTU21D;52176;44.858;38.372;2022-10-17T15:46:40;13.68;83.63
64918;HTU21D;52176;44.858;38.372;2022-10-17T15:49:09;13.66;83.69
64918;HTU21D;52176;44.858;38.372;2022-10-17T15:51:35;13.67;83.76
64918;HTU21D;52176;44.858;38.372;2022-10-17T15:54:01;13.65;83.78
64918;HTU21D;52176;44.858;38.372;2022-10-17T15:56:28;13.65;83.80
64918;HTU21D;52176;44.858;38.372;2022-10-17T15:58:55;13.65;83.81
64918;HTU21D;52176;44.858;38.372;2022-10-17T16:01:25;13.64;83.86
64918;HTU21D;52176;44.858;38.372;2022-10-17T16:03:53;13.62;83.86
64918;HTU21D;52176;44.858;38.372;2022-10-17T16:06:19;13.62;83.90
64918;HTU21D;52176;44.858;38.372;2022-10-17T16:08:45;13.61;83.84
64918;HTU21D;52176;44.858;38.372;2022-10-17T16:11:26;13.60;83.90
64918;HTU21D;52176;44.858;38.372;2022-10-17T16:14:01;13.59;83.90
64918;HTU21D;52176;44.858;38.372;2022-10-17T16:16:27;13.56;83.97
64918;HTU21D;52176;44.858;38.372;2022-10-17T16:18:53;13.55;84.00
64918;HTU21D;52176;44.858;38.372;2022-10-17T16:21:22;13.54;84.13
64918;HTU21D;52176;44.858;38.372;2022-10-17T16:23:49;13.53;84.07
64918;HTU21D;52176;44.858;38.372;2022-10-17T16:26:15;13.53;84.02
64918;HTU21D;52176;44.858;38.372;2022-10-17T16:28:41;13.52;84.00
64918;HTU21D;52176;44.858;38.372;2022-10-17T16:31:26;13.53;84.03
64918;HTU21D;52176;44.858;38.372;2022-10-17T16:33:56;13.50;83.97
64918;HTU21D;52176;44.858;38.372;2022-10-17T16:36:22;13.50;83.97
64918;HTU21D;52176;44.858;38.372;2022-10-17T16:38:48;13.49;83.97
64918;HTU21D;52176;44.858;38.372;2022-10-17T16:43:47;13.49;83.99
64918;HTU21D;52176;44.858;38.372;2022-10-17T16:46:13;13.48;83.98
64918;HTU21D;52176;44.858;38.372;2022-10-17T16:48:39;13.47;83.94
64918;HTU21D;52176;44.858;38.372;2022-10-17T16:51:05;13.46;83.96
64918;HTU21D;52176;44.858;38.372;2022-10-17T16:53:36;13.46;83.89
64918;HTU21D;52176;44.858;38.372;2022-10-17T16:56:09;13.45;83.90
64918;HTU21D;52176;44.858;38.372;2022-10-17T16:58:35;13.44;83.94
64918;HTU21D;52176;44.858;38.372;2022-10-17T17:01:02;13.44;83.95
64918;HTU21D;52176;44.858;38.372;2022-10-17T17:03:35;13.43;83.87
64918;HTU21D;52176;44.858;38.372;2022-10-17T17:06:01;13.44;83.80
64918;HTU21D;52176;44.858;38.372;2022-10-17T17:08:27;13.44;83.78
64918;HTU21D;52176;44.858;38.372;2022-10-17T17:10:53;13.44;83.74
64918;HTU21D;52176;44.858;38.372;2022-10-17T17:13:20;13.45;83.71